createdAt,value
2022-12-22T03:32:02.488Z,41.13
2022-12-22T03:33:06.670Z,42.94
2022-12-22T03:34:10.620Z,43.13
2022-12-22T03:35:14.849Z,41.73
2022-12-22T03:36:18.980Z,43.81
2022-12-22T03:37:22.987Z,40.88
2022-12-22T03:38:27.600Z,42.94
2022-12-22T03:39:31.702Z,43.19
2022-12-22T03:40:35.863Z,43.00
2022-12-22T03:41:39.960Z,40.47
2022-12-22T03:42:44.045Z,41.56
2022-12-22T03:43:48.118Z,43.75
2022-12-22T03:44:57.012Z,43.31
2022-12-22T03:46:11.333Z,41.00
2022-12-22T03:47:16.229Z,40.56
2022-12-22T03:48:20.258Z,42.93
2022-12-22T03:49:24.316Z,42.81
2022-12-22T03:50:28.665Z,44.31
2022-12-22T03:51:34.095Z,39.93
2022-12-22T03:52:38.271Z,44.19
2022-12-22T03:53:42.300Z,43.13
2022-12-22T03:54:46.413Z,42.25
2022-12-22T03:55:50.490Z,43.38
2022-12-22T03:56:55.422Z,40.33
2022-12-22T03:57:59.446Z,42.19
2022-12-22T03:59:03.810Z,42.80
2022-12-22T04:00:08.874Z,42.06
2022-12-22T04:01:13.120Z,42.00
2022-12-22T04:02:17.394Z,42.31
2022-12-22T04:03:21.548Z,42.81
2022-12-22T04:04:27.434Z,41.60
2022-12-22T04:05:31.457Z,42.67
2022-12-22T04:06:35.651Z,40.94
2022-12-22T04:07:39.708Z,42.20
2022-12-22T04:08:43.964Z,43.81
2022-12-22T04:09:48.088Z,40.19
2022-12-22T04:10:52.232Z,44.75
2022-12-22T04:11:56.370Z,41.31
2022-12-22T04:13:09.247Z,39.13
2022-12-22T04:14:13.317Z,40.63
2022-12-22T04:15:19.660Z,43.00
2022-12-22T04:16:23.937Z,41.67
2022-12-22T04:17:27.949Z,42.50
2022-12-22T04:18:32.031Z,43.75
2022-12-22T04:19:36.095Z,39.94
2022-12-22T04:20:59.727Z,41.20
2022-12-22T04:22:05.947Z,43.69
2022-12-22T04:23:10.000Z,44.31
2022-12-22T04:24:17.505Z,44.13
2022-12-22T04:25:22.302Z,42.33
2022-12-22T04:26:27.044Z,42.69
2022-12-22T04:27:31.332Z,41.06
2022-12-22T04:28:35.585Z,40.88
2022-12-22T04:29:39.644Z,39.69
2022-12-22T04:30:43.822Z,41.94
2022-12-22T04:31:48.128Z,40.63
2022-12-22T04:32:52.355Z,42.47
2022-12-22T04:33:56.541Z,43.63
2022-12-22T04:35:00.657Z,41.00
2022-12-22T04:36:05.283Z,38.19
2022-12-22T04:37:16.684Z,43.25
2022-12-22T04:38:15.075Z,45.19
2022-12-22T04:39:19.233Z,42.38
2022-12-22T04:40:23.288Z,44.25
2022-12-22T04:41:27.530Z,45.19
2022-12-22T04:42:31.682Z,43.56
2022-12-22T04:43:36.450Z,44.40
2022-12-22T04:44:40.516Z,42.81
2022-12-22T04:45:45.081Z,41.93
2022-12-22T04:46:49.047Z,43.13
2022-12-22T04:47:53.005Z,42.94
2022-12-22T04:49:00.308Z,42.13
2022-12-22T04:50:02.676Z,45.38
2022-12-22T04:51:06.830Z,42.56
2022-12-22T04:52:10.889Z,44.88
2022-12-22T04:53:14.843Z,42.44
2022-12-22T04:54:20.963Z,45.25
2022-12-22T04:55:24.643Z,40.12
2022-12-22T04:56:28.770Z,39.50
2022-12-22T04:57:36.990Z,42.31
2022-12-22T04:58:40.561Z,41.69
2022-12-22T04:59:44.601Z,42.81
2022-12-22T05:00:48.784Z,41.75
2022-12-22T05:01:53.068Z,41.60
2022-12-22T05:02:57.267Z,42.13
2022-12-22T05:04:12.071Z,43.44
2022-12-22T05:05:16.275Z,43.25
2022-12-22T05:06:27.435Z,42.75
2022-12-22T05:09:06.484Z,41.80
2022-12-22T05:10:12.923Z,42.88
2022-12-22T05:11:24.031Z,43.25
2022-12-22T05:12:35.343Z,38.75
2022-12-22T05:13:49.282Z,41.31
2022-12-22T05:14:53.831Z,43.67
2022-12-22T05:16:06.503Z,43.73
2022-12-22T05:17:21.028Z,42.94
2022-12-22T05:18:19.718Z,42.81
2022-12-22T05:19:29.098Z,35.19
2022-12-22T05:20:30.166Z,44.80
2022-12-22T05:21:34.311Z,44.31
2022-12-22T05:22:46.294Z,39.13
2022-12-22T05:24:08.340Z,43.87
2022-12-22T05:25:18.453Z,42.88
2022-12-22T05:28:18.025Z,39.19
2022-12-22T05:29:16.516Z,43.94
2022-12-22T05:30:31.377Z,42.75
2022-12-22T05:31:35.299Z,43.87
2022-12-22T05:33:07.042Z,43.31
2022-12-22T05:33:53.492Z,43.13
2022-12-22T05:35:00.262Z,44.67
2022-12-22T05:36:04.837Z,41.20
2022-12-22T05:37:08.928Z,40.81
2022-12-22T05:38:12.956Z,42.53
2022-12-22T05:39:16.947Z,42.88
2022-12-22T05:40:21.044Z,43.87
2022-12-22T05:41:28.157Z,45.69
2022-12-22T05:42:32.236Z,43.47
2022-12-22T05:43:37.016Z,43.44
2022-12-22T05:44:41.083Z,42.75
2022-12-22T05:45:46.301Z,42.50
2022-12-22T05:46:53.462Z,43.53
2022-12-22T05:47:57.563Z,41.75
2022-12-22T05:49:01.724Z,44.31
2022-12-22T05:50:08.009Z,40.63
2022-12-22T05:51:12.130Z,43.50
2022-12-22T05:52:16.056Z,44.27
2022-12-22T05:53:22.943Z,44.87
2022-12-22T05:54:28.668Z,44.93
2022-12-22T05:55:34.985Z,40.75
2022-12-22T05:56:39.092Z,44.27
2022-12-22T05:57:43.785Z,44.00
2022-12-22T05:58:47.846Z,43.56
2022-12-22T05:59:51.816Z,44.93
2022-12-22T06:01:00.215Z,42.06
2022-12-22T06:02:04.517Z,41.88
2022-12-22T06:03:08.810Z,37.80
2022-12-22T06:04:13.135Z,43.87
2022-12-22T12:09:16.534Z,49.81
2022-12-22T12:10:31.949Z,46.13
2022-12-22T12:12:06.262Z,48.19
2022-12-22T12:13:37.780Z,50.25
2022-12-22T12:15:10.373Z,52.69
2022-12-22T12:16:33.345Z,53.63
2022-12-22T18:19:55.554Z,55.25
2022-12-22T18:21:06.140Z,52.60
2022-12-22T18:22:05.725Z,55.00
2022-12-22T18:23:24.176Z,52.56
2022-12-22T18:24:28.358Z,51.81
2022-12-22T18:25:34.184Z,53.00
2022-12-22T18:26:38.256Z,54.13
2022-12-22T18:29:18.941Z,52.81
2022-12-22T18:30:26.103Z,52.00
2022-12-22T18:31:32.037Z,54.27
2022-12-22T18:32:37.905Z,56.40
2022-12-22T18:33:42.250Z,54.00
2022-12-22T18:34:48.526Z,56.94
2022-12-22T18:35:59.295Z,55.27
2022-12-22T18:37:57.635Z,53.13
2022-12-22T18:38:39.450Z,54.07
2022-12-22T18:39:45.087Z,52.25
2022-12-22T18:40:49.138Z,52.81
2022-12-22T18:41:55.692Z,58.06
2022-12-22T18:43:06.246Z,57.13
2022-12-22T18:44:10.114Z,53.69
2022-12-22T18:45:18.817Z,54.06
2022-12-22T18:46:24.295Z,51.06
2022-12-22T18:47:28.597Z,54.73
2022-12-22T18:48:32.880Z,53.87
2022-12-22T18:49:40.599Z,50.73
2022-12-22T18:50:48.946Z,52.00
2022-12-22T18:52:00.147Z,53.33
2022-12-22T18:53:30.623Z,52.69
2022-12-22T18:54:38.055Z,52.94
2022-12-22T18:55:42.655Z,54.00
2022-12-22T18:56:48.446Z,48.94
2022-12-22T18:57:54.826Z,49.40
2022-12-22T18:58:59.304Z,52.06
2022-12-22T19:00:09.784Z,57.06
2022-12-22T19:01:22.212Z,51.25
2022-12-22T19:02:30.895Z,52.69
2022-12-22T19:03:38.358Z,53.93
2022-12-22T19:04:42.537Z,54.00
2022-12-22T19:05:47.594Z,54.13
2022-12-22T19:06:51.778Z,51.75
2022-12-22T19:07:56.679Z,53.38
2022-12-22T19:09:00.921Z,53.53
2022-12-22T19:10:05.495Z,52.19
2022-12-22T19:11:11.861Z,53.31
2022-12-22T19:12:20.973Z,52.31
2022-12-22T19:13:36.986Z,54.40
2022-12-22T19:14:43.391Z,54.27
2022-12-22T19:15:47.699Z,54.56
2022-12-22T19:16:51.890Z,54.56
2022-12-22T19:18:03.155Z,52.94
2022-12-22T19:19:19.606Z,50.94
2022-12-22T19:20:25.510Z,55.27
2022-12-22T19:21:29.592Z,53.31
2022-12-22T19:22:33.731Z,54.93
2022-12-22T19:23:37.905Z,54.94
2022-12-22T19:24:45.493Z,55.27
2022-12-22T19:25:52.576Z,53.87
2022-12-22T19:26:56.887Z,53.73
2022-12-22T19:28:11.204Z,53.44
2022-12-22T19:29:15.579Z,51.06
2022-12-22T19:30:22.528Z,52.81
2022-12-22T19:31:29.645Z,53.13
2022-12-22T19:32:40.100Z,55.00
2022-12-22T19:33:45.144Z,53.81
2022-12-22T19:34:49.261Z,51.44
2022-12-22T19:35:53.894Z,52.67
2022-12-22T19:36:58.085Z,51.88
2022-12-22T19:38:02.243Z,50.87
2022-12-22T19:39:06.441Z,53.06
2022-12-22T19:40:12.238Z,53.00
2022-12-22T19:41:25.369Z,54.27
2022-12-22T19:42:29.815Z,50.44
2022-12-22T19:43:34.147Z,52.81
2022-12-22T19:44:44.488Z,53.80
2022-12-22T19:46:02.453Z,53.56
2022-12-22T19:47:09.506Z,49.00
2022-12-22T19:48:16.810Z,52.50
2022-12-22T19:49:23.609Z,50.06
2022-12-22T19:50:39.915Z,51.63
2022-12-22T19:51:56.057Z,51.06
2022-12-22T19:53:02.026Z,53.13
2022-12-22T19:54:07.850Z,50.31
2022-12-22T19:55:12.613Z,50.88
2022-12-22T19:56:29.865Z,47.44
2022-12-22T19:57:37.343Z,49.56
2022-12-22T19:58:42.003Z,50.25
2022-12-22T19:59:49.315Z,53.25
2022-12-22T20:00:55.991Z,48.75
2022-12-22T20:02:07.580Z,50.94
2022-12-22T20:03:13.587Z,50.88
2022-12-22T20:04:17.872Z,53.38
2022-12-22T20:05:38.564Z,50.81
2022-12-22T20:06:43.773Z,50.00
2022-12-22T20:07:48.394Z,51.00
2022-12-22T20:08:54.164Z,52.73
2022-12-22T20:10:15.281Z,50.12
2022-12-22T20:11:22.248Z,49.27
2022-12-22T20:12:32.519Z,50.06
2022-12-22T20:13:38.213Z,50.27
2022-12-22T20:14:42.511Z,49.19
2022-12-22T20:15:46.794Z,47.62
2022-12-22T20:16:52.791Z,51.69
2022-12-22T20:17:58.425Z,51.44
2022-12-22T20:19:13.128Z,51.63
2022-12-22T20:20:27.466Z,52.80
2022-12-22T20:21:32.132Z,51.31
2022-12-22T20:22:36.324Z,50.63
2022-12-22T20:23:55.175Z,50.38
2022-12-22T20:25:00.332Z,51.19
2022-12-22T20:26:10.481Z,51.87
2022-12-22T20:27:26.495Z,49.87
2022-12-22T20:28:40.559Z,49.75
2022-12-22T20:29:42.286Z,53.20
2022-12-22T20:30:47.611Z,50.69
2022-12-22T20:31:52.170Z,52.00
2022-12-22T20:32:56.575Z,52.67
2022-12-22T20:34:00.661Z,47.87
2022-12-22T20:35:04.931Z,51.13
2022-12-22T20:37:37.546Z,50.33
2022-12-22T20:38:42.964Z,51.75
2022-12-22T20:39:47.116Z,49.25
2022-12-22T20:40:52.805Z,52.88
2022-12-22T20:41:56.972Z,51.67
2022-12-22T20:43:01.095Z,47.62
2022-12-22T20:44:17.514Z,52.56
2022-12-22T20:46:45.528Z,50.81
2022-12-22T20:47:58.978Z,51.25
2022-12-22T20:49:07.936Z,51.67
2022-12-22T20:50:20.706Z,48.69
2022-12-22T20:51:27.934Z,47.27
2022-12-22T20:52:32.002Z,36.93
2022-12-22T20:53:37.979Z,50.38
2022-12-22T20:54:44.359Z,50.27
2022-12-22T20:55:52.727Z,50.19
2022-12-22T20:56:59.846Z,45.12
2022-12-22T20:58:05.272Z,49.40
2022-12-22T20:59:15.243Z,51.00
2022-12-22T21:00:28.574Z,51.31
2022-12-22T21:01:37.568Z,50.53
2022-12-22T21:02:45.304Z,50.00
2022-12-22T21:03:50.098Z,50.27
2022-12-22T21:04:57.687Z,48.00
2022-12-22T21:06:01.848Z,49.31
2022-12-22T21:07:05.974Z,51.73
2022-12-22T21:08:20.003Z,46.81
2022-12-22T21:09:23.960Z,51.47
2022-12-22T21:10:34.723Z,51.50
2022-12-22T21:11:42.719Z,49.25
2022-12-22T21:12:55.947Z,50.00
2022-12-22T21:14:00.318Z,49.13
2022-12-22T21:15:04.977Z,51.27
2022-12-22T21:16:28.027Z,48.81
2022-12-22T21:17:32.398Z,45.31
2022-12-22T21:18:36.537Z,47.13
2022-12-22T21:19:40.829Z,52.00
2022-12-22T21:20:46.287Z,49.00
2022-12-22T21:21:52.084Z,51.00
2022-12-22T21:22:57.799Z,47.94
2022-12-22T21:24:05.029Z,51.13
2022-12-22T21:25:14.286Z,49.53
2022-12-22T21:26:33.600Z,49.50
2022-12-22T21:27:38.848Z,50.27
2022-12-22T21:28:46.207Z,50.53
2022-12-22T21:29:50.419Z,47.47
2022-12-22T21:30:54.585Z,48.38
2022-12-22T21:31:58.673Z,50.50
2022-12-22T21:33:04.407Z,46.81
2022-12-22T21:34:10.788Z,49.94
2022-12-22T21:35:18.032Z,47.31
2022-12-22T21:36:27.927Z,49.60
2022-12-22T21:37:32.084Z,48.93
2022-12-22T21:38:36.851Z,48.53
2022-12-22T21:39:42.664Z,49.19
2022-12-22T21:40:46.931Z,44.88
2022-12-22T21:41:51.366Z,47.93
2022-12-22T21:42:56.405Z,46.87
2022-12-22T21:44:02.237Z,50.06
2022-12-22T21:45:11.088Z,48.75
2022-12-22T21:46:15.350Z,48.63
2022-12-22T21:47:21.254Z,50.27
2022-12-22T21:48:25.374Z,49.56
2022-12-22T21:49:31.600Z,50.56
2022-12-22T21:50:36.362Z,49.25
2022-12-22T21:51:40.625Z,45.73
2022-12-22T21:52:46.120Z,48.67
2022-12-22T21:53:50.336Z,49.06
2022-12-22T21:54:54.319Z,48.93
2022-12-22T21:55:58.637Z,50.94
2022-12-22T21:57:04.307Z,49.13
2022-12-22T21:58:12.531Z,46.40
2022-12-22T21:59:16.946Z,48.27
2022-12-22T22:00:22.499Z,49.25
2022-12-22T22:01:28.046Z,47.40
2022-12-22T22:02:32.339Z,47.50
2022-12-22T22:03:36.401Z,49.40
2022-12-22T22:04:40.474Z,46.50
2022-12-22T22:05:44.621Z,45.33
2022-12-22T22:06:48.873Z,45.53
2022-12-22T22:07:54.962Z,47.44
2022-12-22T22:08:59.067Z,46.25
2022-12-22T22:10:03.303Z,45.50
2022-12-22T22:11:18.743Z,47.44
2022-12-22T22:12:28.142Z,47.75
2022-12-22T22:13:28.731Z,47.13
2022-12-22T22:14:34.128Z,45.56
2022-12-22T22:15:38.186Z,45.94
2022-12-22T22:16:44.123Z,48.80
2022-12-22T22:17:52.152Z,44.75
2022-12-22T22:18:55.923Z,43.33
2022-12-22T22:20:00.190Z,42.60
2022-12-22T22:21:05.685Z,47.00
2022-12-22T22:22:09.693Z,46.80
2022-12-22T22:23:15.834Z,43.13
2022-12-22T22:24:20.701Z,45.63
2022-12-22T22:25:25.252Z,46.31
2022-12-22T22:26:29.194Z,44.88
2022-12-22T22:27:33.205Z,45.50
2022-12-22T22:28:37.825Z,46.56
2022-12-22T22:29:43.358Z,45.80
2022-12-22T22:30:47.480Z,45.75
2022-12-22T22:31:53.328Z,42.69
2022-12-22T22:32:57.748Z,44.47
2022-12-22T22:34:03.085Z,42.47
2022-12-22T22:35:07.425Z,45.93
2022-12-22T22:36:11.637Z,46.13
2022-12-22T22:37:16.763Z,47.06
2022-12-22T22:38:21.696Z,45.33
2022-12-22T22:39:27.337Z,42.87
2022-12-22T22:40:32.559Z,44.56
2022-12-22T22:41:42.946Z,43.06
2022-12-22T22:42:42.556Z,44.33
2022-12-22T22:43:48.171Z,45.53
2022-12-22T22:44:52.399Z,46.00
2022-12-22T22:45:56.786Z,44.33
2022-12-22T22:47:00.951Z,44.38
2022-12-22T22:48:11.085Z,41.88
2022-12-22T22:49:14.974Z,43.81
2022-12-22T22:50:20.593Z,44.40
2022-12-22T22:51:24.959Z,44.20
2022-12-22T22:52:29.039Z,44.88
2022-12-22T22:53:36.286Z,43.00
2022-12-22T22:54:40.285Z,42.25
2022-12-22T22:55:45.831Z,44.63
2022-12-22T22:56:49.957Z,46.13
2022-12-22T22:57:54.318Z,44.75
2022-12-22T22:59:02.365Z,43.40
2022-12-22T23:00:10.732Z,44.50
2022-12-22T23:01:14.933Z,42.07
2022-12-22T23:02:19.218Z,45.88
2022-12-22T23:03:23.733Z,42.81
2022-12-22T23:04:29.946Z,43.40
2022-12-22T23:05:34.032Z,44.56
2022-12-22T23:06:38.073Z,43.19
2022-12-22T23:07:42.226Z,41.73
2022-12-22T23:08:50.940Z,44.27
2022-12-22T23:09:55.062Z,44.27
2022-12-22T23:10:59.635Z,43.38
2022-12-22T23:12:03.934Z,43.67
2022-12-22T23:13:08.057Z,44.13
2022-12-22T23:14:12.212Z,46.13
2022-12-22T23:15:16.356Z,45.31
2022-12-22T23:16:20.918Z,44.80
2022-12-22T23:17:25.097Z,42.62
2022-12-22T23:18:30.677Z,39.31
2022-12-22T23:19:34.830Z,44.50
2022-12-22T23:20:40.429Z,41.06
2022-12-22T23:21:44.858Z,45.25
2022-12-22T23:22:48.879Z,45.69
2022-12-22T23:23:57.817Z,44.44
2022-12-22T23:25:01.877Z,43.56
2022-12-22T23:26:06.362Z,45.25
2022-12-22T23:27:10.315Z,44.27
2022-12-22T23:28:14.535Z,42.38
2022-12-22T23:29:18.731Z,42.00
2022-12-22T23:30:22.892Z,45.40
2022-12-22T23:31:26.954Z,46.33
2022-12-22T23:32:31.094Z,45.13
2022-12-22T23:33:35.122Z,46.31
2022-12-22T23:34:39.169Z,46.13
2022-12-22T23:35:45.270Z,44.88
2022-12-22T23:36:49.387Z,45.44
2022-12-22T23:37:53.427Z,44.69
2022-12-22T23:38:58.008Z,46.00
2022-12-22T23:40:25.623Z,45.06
2022-12-22T23:41:10.856Z,44.81
2022-12-22T23:42:14.906Z,43.94
2022-12-22T23:43:18.980Z,45.75
2022-12-22T23:44:23.403Z,46.06
2022-12-22T23:45:31.843Z,47.93
2022-12-22T23:46:35.983Z,43.44
2022-12-22T23:47:41.008Z,45.67
2022-12-22T23:48:46.569Z,46.20
2022-12-22T23:49:50.643Z,45.06
2022-12-22T23:50:54.808Z,43.87
2022-12-22T23:51:58.916Z,45.75
2022-12-22T23:53:03.324Z,46.00
2022-12-22T23:54:07.459Z,44.56
2022-12-22T23:55:11.550Z,46.07
2022-12-22T23:56:16.062Z,42.73
2022-12-22T23:57:20.085Z,46.56
2022-12-22T23:58:24.986Z,46.94
2022-12-22T23:59:30.483Z,46.88
